createdAt,value
2023-03-29T07:21:25.628Z,17.37
2023-03-29T07:24:10.634Z,18.33
2023-03-29T07:27:03.761Z,19.01
2023-03-29T07:29:49.450Z,19.72
2023-03-29T07:32:34.468Z,20.12
2023-03-29T07:35:19.305Z,20.32
2023-03-29T07:38:04.152Z,20.43
2023-03-29T07:40:49.084Z,20.50
2023-03-29T07:43:34.012Z,20.61
2023-03-29T07:46:19.082Z,20.81
2023-03-29T07:49:03.914Z,20.80
2023-03-29T07:51:48.845Z,20.84
2023-03-29T07:54:33.647Z,20.87
2023-03-29T07:57:18.539Z,20.90
2023-03-29T08:00:03.369Z,20.79
2023-03-29T08:02:48.257Z,21.11
2023-03-29T08:05:40.940Z,20.95
2023-03-29T08:08:26.603Z,20.84
2023-03-29T08:11:11.331Z,20.88
2023-03-29T08:13:56.294Z,20.85
2023-03-29T08:16:41.001Z,20.91
2023-03-29T08:19:25.907Z,20.96
2023-03-29T08:22:10.692Z,20.87
2023-03-29T08:24:55.634Z,20.82
2023-03-29T08:27:40.662Z,20.83
2023-03-29T08:30:25.551Z,20.82
2023-03-29T08:33:10.806Z,20.92
2023-03-29T08:35:55.627Z,20.93
2023-03-29T08:38:40.595Z,20.93
2023-03-29T08:41:25.563Z,20.88
2023-03-29T08:44:10.550Z,20.85
2023-03-29T08:46:55.515Z,21.03
2023-03-29T08:49:40.309Z,20.82
2023-03-29T08:52:25.262Z,20.96
2023-03-29T08:55:10.102Z,20.96
2023-03-29T08:57:55.008Z,21.00
2023-03-29T09:00:39.727Z,20.98
2023-03-29T09:03:24.676Z,20.83
2023-03-29T09:06:09.372Z,20.87
2023-03-29T09:08:54.600Z,20.77
2023-03-29T09:11:39.225Z,20.67
2023-03-29T09:14:24.123Z,20.75
2023-03-29T09:17:08.820Z,20.55
2023-03-29T09:19:53.765Z,20.77
2023-03-29T09:22:38.795Z,20.81
2023-03-29T09:25:23.546Z,20.94
2023-03-29T09:28:08.574Z,21.00
2023-03-29T09:30:53.272Z,21.00
2023-03-29T09:33:38.088Z,20.96
2023-03-29T09:36:22.939Z,20.96
2023-03-29T09:39:07.781Z,21.02
2023-03-29T09:41:52.639Z,20.99
2023-03-29T09:44:37.560Z,21.01
2023-03-29T09:53:00.720Z,16.35
2023-03-29T09:55:46.304Z,14.19
2023-03-29T09:58:32.305Z,13.39
2023-03-29T10:01:17.091Z,13.13
2023-03-29T10:04:02.084Z,12.84
2023-03-29T10:06:46.998Z,12.62
2023-03-29T10:09:31.872Z,12.49
2023-03-29T10:12:16.840Z,12.44
2023-03-29T10:15:01.750Z,12.34
2023-03-29T10:17:46.714Z,12.46
2023-03-29T10:20:31.539Z,11.57
2023-03-29T10:23:16.450Z,10.23
2023-03-29T10:26:01.295Z,10.84
2023-03-29T10:28:46.176Z,11.17
2023-03-29T10:31:31.007Z,10.87
2023-03-29T10:34:15.940Z,10.32
2023-03-29T10:37:00.855Z,10.71
2023-03-29T10:39:45.701Z,11.66
2023-03-29T10:42:30.431Z,11.30
2023-03-29T10:45:15.274Z,11.09
2023-03-29T10:48:00.171Z,10.44
2023-03-29T10:50:45.006Z,9.47
2023-03-29T10:53:29.723Z,8.63
2023-03-29T10:56:14.551Z,9.71
2023-03-29T10:58:59.507Z,10.33
2023-03-29T11:01:44.492Z,10.63
2023-03-29T11:04:29.269Z,10.71
2023-03-29T11:07:14.194Z,11.11
2023-03-29T11:09:59.034Z,11.14
2023-03-29T11:12:43.906Z,11.54
2023-03-29T11:15:28.797Z,11.85
2023-03-29T11:18:13.799Z,12.31
2023-03-29T11:20:58.666Z,11.48
2023-03-29T11:23:43.532Z,10.20
2023-03-29T11:26:28.492Z,10.64
2023-03-29T11:29:13.392Z,11.33
2023-03-29T11:31:58.384Z,11.76
2023-03-29T11:34:43.170Z,11.84
2023-03-29T11:37:28.109Z,12.04
2023-03-29T11:40:12.882Z,11.86
2023-03-29T11:42:57.979Z,12.01
2023-03-29T11:45:42.903Z,10.78
2023-03-29T11:48:27.882Z,10.74
2023-03-29T11:51:12.887Z,10.75
2023-03-29T11:53:57.777Z,10.88
2023-03-29T11:56:42.663Z,10.75
2023-03-29T11:59:27.443Z,10.06
2023-03-29T12:02:12.404Z,9.25
2023-03-29T12:04:57.224Z,9.41
2023-03-29T12:07:42.088Z,10.13
2023-03-29T12:10:26.838Z,10.72
2023-03-29T12:13:11.864Z,10.95
2023-03-29T12:15:56.772Z,11.11
2023-03-29T12:18:41.603Z,10.63
2023-03-29T12:21:26.701Z,11.16
2023-03-29T12:24:11.643Z,11.71
2023-03-29T12:26:56.567Z,12.25
2023-03-29T12:29:41.439Z,12.35
2023-03-29T12:32:26.441Z,12.63
2023-03-29T12:35:11.167Z,12.70
2023-03-29T12:37:56.183Z,12.87
2023-03-29T12:40:41.031Z,12.91
2023-03-29T12:43:25.792Z,13.07
2023-03-29T12:46:10.772Z,13.18
2023-03-29T12:48:55.652Z,13.27
2023-03-29T12:51:40.625Z,13.36
2023-03-29T12:54:27.916Z,13.43
2023-03-29T12:57:12.935Z,13.25
2023-03-29T12:59:57.723Z,13.39
2023-03-29T13:02:42.619Z,13.49
2023-03-29T13:05:27.714Z,13.55
2023-03-29T13:08:12.554Z,13.61
2023-03-29T13:10:57.435Z,13.79
2023-03-29T13:13:42.232Z,13.95
2023-03-29T13:16:27.096Z,14.05
2023-03-29T13:19:11.852Z,13.76
2023-03-29T13:21:56.754Z,13.57
2023-03-29T13:24:41.756Z,13.24
2023-03-29T13:27:26.451Z,13.04
2023-03-29T13:30:11.397Z,12.60
2023-03-29T13:32:56.195Z,12.91
2023-03-29T13:35:41.149Z,13.59
2023-03-29T13:38:25.925Z,13.91
2023-03-29T13:41:10.928Z,14.12
2023-03-29T13:43:55.757Z,13.41
2023-03-29T13:46:40.734Z,12.76
2023-03-29T13:49:25.582Z,12.39
2023-03-29T13:52:10.592Z,13.25
2023-03-29T13:54:55.534Z,12.68
2023-03-29T13:57:40.459Z,13.17
2023-03-29T14:00:25.368Z,13.35
2023-03-29T14:03:10.277Z,13.16
2023-03-29T14:05:55.049Z,13.11
2023-03-29T14:08:39.898Z,12.99
2023-03-29T14:11:24.855Z,12.90
2023-03-29T14:14:09.709Z,12.48
2023-03-29T14:16:54.688Z,11.65
2023-03-29T14:19:39.542Z,10.87
2023-03-29T14:22:24.520Z,11.06
2023-03-29T14:25:09.441Z,11.55
2023-03-29T14:27:54.162Z,12.11
2023-03-29T14:30:39.072Z,12.09
2023-03-29T14:33:23.861Z,12.41
2023-03-29T14:36:08.829Z,12.40
2023-03-29T14:38:53.543Z,12.19
2023-03-29T14:41:38.469Z,12.41
2023-03-29T14:44:23.381Z,12.41
2023-03-29T14:47:08.181Z,13.15
2023-03-29T14:49:53.107Z,13.09
2023-03-29T14:52:37.901Z,13.28
2023-03-29T14:55:23.000Z,13.50
2023-03-29T14:58:09.505Z,13.42
2023-03-29T15:00:55.734Z,12.72
2023-03-29T15:03:40.993Z,13.10
2023-03-29T15:06:25.650Z,12.72
2023-03-29T15:09:10.611Z,12.25
2023-03-29T15:11:55.482Z,12.45
2023-03-29T15:14:40.234Z,12.09
2023-03-29T15:17:25.114Z,11.87
2023-03-29T15:20:09.848Z,11.28
2023-03-29T15:22:54.873Z,11.57
2023-03-29T15:25:39.437Z,11.48
2023-03-29T15:28:24.565Z,11.98
2023-03-29T15:31:09.321Z,12.45
2023-03-29T15:33:54.231Z,12.93
2023-03-29T15:36:39.072Z,13.27
2023-03-29T15:39:24.060Z,13.60
2023-03-29T15:42:08.943Z,13.72
2023-03-29T15:44:53.700Z,13.83
2023-03-29T15:47:38.696Z,13.63
2023-03-29T15:50:23.478Z,13.80
2023-03-29T15:53:15.018Z,13.80
2023-03-29T15:56:00.539Z,13.86
2023-03-29T15:58:45.198Z,13.86
2023-03-29T16:01:30.203Z,13.64
2023-03-29T16:04:15.042Z,13.79
2023-03-29T16:07:00.001Z,13.90
2023-03-29T16:09:44.818Z,14.02
2023-03-29T16:12:29.721Z,13.82
2023-03-29T16:15:14.479Z,13.69
2023-03-29T16:17:59.438Z,13.85
2023-03-29T16:20:44.261Z,14.03
2023-03-29T16:23:29.126Z,14.06
2023-03-29T16:26:14.160Z,14.11
2023-03-29T16:28:59.012Z,14.17
2023-03-29T16:31:43.999Z,14.14
2023-03-29T16:34:28.824Z,14.28
2023-03-29T16:37:13.753Z,14.40
2023-03-29T16:39:58.542Z,14.25
2023-03-29T16:42:43.597Z,14.28
2023-03-29T16:45:28.489Z,14.09
2023-03-29T16:48:13.476Z,13.85
2023-03-29T16:50:58.478Z,13.78
2023-03-29T16:53:43.218Z,13.70
2023-03-29T16:56:28.249Z,13.68
2023-03-29T16:59:12.987Z,13.43
2023-03-29T17:01:57.835Z,13.45
2023-03-29T17:04:42.809Z,13.42
2023-03-29T17:07:27.620Z,13.33
2023-03-29T17:10:12.670Z,13.23
2023-03-29T17:12:57.427Z,13.18
2023-03-29T17:15:42.398Z,13.15
2023-03-29T17:18:27.154Z,12.94
2023-03-29T17:21:12.140Z,12.94
2023-03-29T17:23:56.916Z,12.63
2023-03-29T17:26:43.819Z,12.05
2023-03-29T17:29:30.147Z,11.85
2023-03-29T17:32:14.883Z,11.99
2023-03-29T17:34:59.709Z,12.30
2023-03-29T17:37:44.555Z,12.10
2023-03-29T17:40:29.510Z,12.25
2023-03-29T17:43:14.241Z,12.31
2023-03-29T17:45:59.036Z,12.31
2023-03-29T17:48:43.870Z,12.19
2023-03-29T17:51:28.699Z,12.20
2023-03-29T17:54:13.614Z,12.22
2023-03-29T17:56:58.648Z,12.03
2023-03-29T17:59:43.556Z,11.94
2023-03-29T18:02:28.463Z,11.44
2023-03-29T18:05:13.366Z,11.15
2023-03-29T18:07:58.119Z,11.34
2023-03-29T18:10:42.974Z,11.23
2023-03-29T18:13:27.858Z,10.43
2023-03-29T18:16:12.737Z,10.39
2023-03-29T18:18:57.541Z,10.66
2023-03-29T18:21:42.282Z,10.76
2023-03-29T18:24:27.224Z,10.97
2023-03-29T18:27:12.052Z,11.37
2023-03-29T18:29:56.855Z,11.37
2023-03-29T18:32:41.615Z,11.13
2023-03-29T18:35:26.405Z,10.93
2023-03-29T18:38:11.243Z,11.01
2023-03-29T18:40:56.115Z,11.16
2023-03-29T18:43:41.044Z,10.72
2023-03-29T18:46:26.018Z,10.73
2023-03-29T18:49:10.842Z,10.54
2023-03-29T18:51:55.742Z,10.62
2023-03-29T18:54:40.627Z,10.42
2023-03-29T18:57:25.486Z,10.42
2023-03-29T19:00:10.349Z,10.91
2023-03-29T19:02:55.236Z,10.90
2023-03-29T19:05:40.153Z,10.78
2023-03-29T19:08:25.192Z,10.96
2023-03-29T19:11:10.030Z,11.01
2023-03-29T19:13:54.992Z,11.05
2023-03-29T19:16:42.767Z,10.32
2023-03-29T19:19:27.732Z,10.62
2023-03-29T19:22:12.709Z,10.61
2023-03-29T19:24:57.555Z,10.78
2023-03-29T19:27:42.475Z,10.92
2023-03-29T19:30:27.367Z,11.00
2023-03-29T19:33:12.357Z,11.23
2023-03-29T19:35:57.134Z,11.16
2023-03-29T19:38:42.024Z,11.09
2023-03-29T19:41:26.799Z,11.07
2023-03-29T19:44:11.853Z,11.08
2023-03-29T19:46:56.859Z,10.55
2023-03-29T19:49:41.695Z,10.76
2023-03-29T19:52:26.689Z,10.65
2023-03-29T19:55:11.446Z,10.82
2023-03-29T19:57:56.364Z,10.97
2023-03-29T20:00:41.278Z,10.75
2023-03-29T20:03:26.060Z,10.30
2023-03-29T20:06:10.926Z,10.65
2023-03-29T20:08:55.805Z,10.87
2023-03-29T20:11:40.690Z,10.96
2023-03-29T20:14:25.668Z,10.83
2023-03-29T20:17:10.643Z,10.79
2023-03-29T20:19:55.416Z,10.88
2023-03-29T20:22:40.402Z,11.00
2023-03-29T20:25:25.119Z,10.59
2023-03-29T20:28:10.020Z,10.15
2023-03-29T20:30:54.825Z,10.57
2023-03-29T20:33:39.877Z,10.47
2023-03-29T20:36:24.771Z,10.16
2023-03-29T20:39:09.644Z,10.41
2023-03-29T20:41:54.480Z,10.59
2023-03-29T20:44:39.373Z,10.55
2023-03-29T20:47:24.312Z,10.35
2023-03-29T20:50:09.008Z,10.69
2023-03-29T20:52:53.755Z,10.75
2023-03-29T20:55:38.597Z,10.97
2023-03-29T20:58:23.587Z,10.99
